sensor_id;sensor_type;location;lat;lon;timestamp;P1;durP1;ratioP1;P2;durP2;ratioP2
20080;SDS011;10200;49.232;9.222;2023-08-06T00:00:37;3.72;;;1.45;;
20080;SDS011;10200;49.232;9.222;2023-08-06T00:03:03;2.67;;;1.53;;
20080;SDS011;10200;49.232;9.222;2023-08-06T00:05:29;2.03;;;1.45;;
20080;SDS011;10200;49.232;9.222;2023-08-06T00:07:55;1.80;;;1.52;;
20080;SDS011;10200;49.232;9.222;2023-08-06T00:10:20;1.50;;;1.40;;
20080;SDS011;10200;49.232;9.222;2023-08-06T00:12:46;1.77;;;1.40;;
20080;SDS011;10200;49.232;9.222;2023-08-06T00:15:12;2.38;;;1.83;;
20080;SDS011;10200;49.232;9.222;2023-08-06T00:17:37;1.77;;;1.33;;
20080;SDS011;10200;49.232;9.222;2023-08-06T00:20:04;3.40;;;1.67;;
20080;SDS011;10200;49.232;9.222;2023-08-06T00:22:40;2.37;;;1.40;;
20080;SDS011;10200;49.232;9.222;2023-08-06T00:25:05;1.73;;;1.63;;
20080;SDS011;10200;49.232;9.222;2023-08-06T00:27:31;3.33;;;1.85;;
20080;SDS011;10200;49.232;9.222;2023-08-06T00:30:00;3.57;;;1.30;;
20080;SDS011;10200;49.232;9.222;2023-08-06T00:32:25;1.60;;;1.50;;
20080;SDS011;10200;49.232;9.222;2023-08-06T00:34:51;4.03;;;1.80;;
20080;SDS011;10200;49.232;9.222;2023-08-06T00:37:17;3.85;;;1.90;;
20080;SDS011;10200;49.232;9.222;2023-08-06T00:39:43;3.67;;;1.40;;
20080;SDS011;10200;49.232;9.222;2023-08-06T00:42:09;3.08;;;2.40;;
20080;SDS011;10200;49.232;9.222;2023-08-06T00:44:35;1.40;;;1.30;;
20080;SDS011;10200;49.232;9.222;2023-08-06T00:47:01;1.92;;;1.60;;
20080;SDS011;10200;49.232;9.222;2023-08-06T00:49:27;7.33;;;1.57;;
20080;SDS011;10200;49.232;9.222;2023-08-06T00:51:52;3.53;;;1.67;;
20080;SDS011;10200;49.232;9.222;2023-08-06T00:54:18;2.00;;;1.65;;
20080;SDS011;10200;49.232;9.222;2023-08-06T00:56:44;2.03;;;1.50;;
20080;SDS011;10200;49.232;9.222;2023-08-06T00:59:11;1.45;;;1.35;;
20080;SDS011;10200;49.232;9.222;2023-08-06T01:01:37;2.00;;;1.70;;
20080;SDS011;10200;49.232;9.222;2023-08-06T01:04:03;4.15;;;1.60;;
20080;SDS011;10200;49.232;9.222;2023-08-06T01:09:19;1.90;;;1.58;;
20080;SDS011;10200;49.232;9.222;2023-08-06T01:12:06;3.30;;;1.80;;
20080;SDS011;10200;49.232;9.222;2023-08-06T01:15:00;1.45;;;1.30;;
20080;SDS011;10200;49.232;9.222;2023-08-06T01:17:40;2.30;;;1.63;;
20080;SDS011;10200;49.232;9.222;2023-08-06T01:20:06;3.87;;;2.00;;
20080;SDS011;10200;49.232;9.222;2023-08-06T01:22:32;2.17;;;1.73;;
20080;SDS011;10200;49.232;9.222;2023-08-06T01:24:58;2.93;;;2.00;;
20080;SDS011;10200;49.232;9.222;2023-08-06T01:27:26;1.63;;;1.33;;
20080;SDS011;10200;49.232;9.222;2023-08-06T01:30:06;2.37;;;1.50;;
20080;SDS011;10200;49.232;9.222;2023-08-06T01:32:44;2.47;;;1.53;;
20080;SDS011;10200;49.232;9.222;2023-08-06T01:35:11;3.43;;;2.20;;
20080;SDS011;10200;49.232;9.222;2023-08-06T01:37:38;2.50;;;1.63;;
20080;SDS011;10200;49.232;9.222;2023-08-06T01:40:06;3.03;;;2.07;;
20080;SDS011;10200;49.232;9.222;2023-08-06T01:42:34;2.00;;;1.60;;
20080;SDS011;10200;49.232;9.222;2023-08-06T01:45:00;1.70;;;1.60;;
20080;SDS011;10200;49.232;9.222;2023-08-06T01:47:26;2.50;;;1.83;;
20080;SDS011;10200;49.232;9.222;2023-08-06T01:49:51;3.73;;;2.00;;
20080;SDS011;10200;49.232;9.222;2023-08-06T01:52:17;3.53;;;1.70;;
20080;SDS011;10200;49.232;9.222;2023-08-06T01:54:43;2.33;;;1.73;;
20080;SDS011;10200;49.232;9.222;2023-08-06T01:57:08;3.63;;;1.47;;
20080;SDS011;10200;49.232;9.222;2023-08-06T01:59:34;4.03;;;2.00;;
20080;SDS011;10200;49.232;9.222;2023-08-06T02:01:59;4.03;;;1.70;;
20080;SDS011;10200;49.232;9.222;2023-08-06T02:04:25;4.10;;;1.80;;
20080;SDS011;10200;49.232;9.222;2023-08-06T02:06:50;2.20;;;1.80;;
20080;SDS011;10200;49.232;9.222;2023-08-06T02:09:16;2.30;;;2.10;;
20080;SDS011;10200;49.232;9.222;2023-08-06T02:11:41;2.97;;;2.00;;
20080;SDS011;10200;49.232;9.222;2023-08-06T02:14:07;2.30;;;2.10;;
20080;SDS011;10200;49.232;9.222;2023-08-06T02:16:33;2.17;;;1.88;;
20080;SDS011;10200;49.232;9.222;2023-08-06T02:18:58;6.25;;;2.00;;
20080;SDS011;10200;49.232;9.222;2023-08-06T02:21:24;1.70;;;1.60;;
20080;SDS011;10200;49.232;9.222;2023-08-06T02:23:49;1.87;;;1.77;;
20080;SDS011;10200;49.232;9.222;2023-08-06T02:26:15;4.10;;;1.83;;
20080;SDS011;10200;49.232;9.222;2023-08-06T02:28:40;3.37;;;2.07;;
20080;SDS011;10200;49.232;9.222;2023-08-06T02:31:06;2.47;;;1.63;;
20080;SDS011;10200;49.232;9.222;2023-08-06T02:33:31;2.40;;;1.80;;
20080;SDS011;10200;49.232;9.222;2023-08-06T02:36:00;4.00;;;1.80;;
20080;SDS011;10200;49.232;9.222;2023-08-06T02:38:26;3.95;;;2.10;;
20080;SDS011;10200;49.232;9.222;2023-08-06T02:40:52;1.98;;;1.83;;
20080;SDS011;10200;49.232;9.222;2023-08-06T02:43:18;2.03;;;1.83;;
20080;SDS011;10200;49.232;9.222;2023-08-06T02:45:43;2.63;;;2.33;;
20080;SDS011;10200;49.232;9.222;2023-08-06T02:48:09;2.67;;;2.40;;
20080;SDS011;10200;49.232;9.222;2023-08-06T02:50:38;2.75;;;2.35;;
20080;SDS011;10200;49.232;9.222;2023-08-06T02:53:07;2.95;;;2.13;;
20080;SDS011;10200;49.232;9.222;2023-08-06T02:55:34;3.20;;;2.33;;
20080;SDS011;10200;49.232;9.222;2023-08-06T02:58:00;3.53;;;1.98;;
20080;SDS011;10200;49.232;9.222;2023-08-06T03:00:26;4.38;;;2.28;;
20080;SDS011;10200;49.232;9.222;2023-08-06T03:02:52;2.50;;;2.30;;
20080;SDS011;10200;49.232;9.222;2023-08-06T03:05:18;2.25;;;2.05;;
20080;SDS011;10200;49.232;9.222;2023-08-06T03:07:44;2.78;;;2.55;;
20080;SDS011;10200;49.232;9.222;2023-08-06T03:10:09;6.43;;;2.63;;
20080;SDS011;10200;49.232;9.222;2023-08-06T03:12:35;3.97;;;2.67;;
20080;SDS011;10200;49.232;9.222;2023-08-06T03:15:00;3.00;;;2.47;;
20080;SDS011;10200;49.232;9.222;2023-08-06T03:17:26;3.17;;;2.37;;
20080;SDS011;10200;49.232;9.222;2023-08-06T03:19:51;3.73;;;2.60;;
20080;SDS011;10200;49.232;9.222;2023-08-06T03:22:17;2.77;;;2.23;;
20080;SDS011;10200;49.232;9.222;2023-08-06T03:24:42;2.90;;;2.30;;
20080;SDS011;10200;49.232;9.222;2023-08-06T03:27:08;5.03;;;2.23;;
20080;SDS011;10200;49.232;9.222;2023-08-06T03:29:34;3.67;;;2.60;;
20080;SDS011;10200;49.232;9.222;2023-08-06T03:31:59;2.78;;;2.47;;
20080;SDS011;10200;49.232;9.222;2023-08-06T03:34:25;4.63;;;2.40;;
20080;SDS011;10200;49.232;9.222;2023-08-06T03:36:50;5.13;;;2.03;;
20080;SDS011;10200;49.232;9.222;2023-08-06T03:39:16;4.13;;;2.27;;
20080;SDS011;10200;49.232;9.222;2023-08-06T03:41:41;2.97;;;2.27;;
20080;SDS011;10200;49.232;9.222;2023-08-06T03:44:07;2.27;;;2.07;;
20080;SDS011;10200;49.232;9.222;2023-08-06T03:46:32;4.33;;;2.50;;
20080;SDS011;10200;49.232;9.222;2023-08-06T03:48:59;3.60;;;2.50;;
20080;SDS011;10200;49.232;9.222;2023-08-06T03:51:25;3.57;;;2.57;;
20080;SDS011;10200;49.232;9.222;2023-08-06T03:53:51;4.03;;;2.50;;
20080;SDS011;10200;49.232;9.222;2023-08-06T03:56:16;4.27;;;2.43;;
20080;SDS011;10200;49.232;9.222;2023-08-06T03:58:42;4.20;;;2.50;;
20080;SDS011;10200;49.232;9.222;2023-08-06T04:01:08;3.00;;;2.37;;
20080;SDS011;10200;49.232;9.222;2023-08-06T04:03:33;3.00;;;2.70;;
20080;SDS011;10200;49.232;9.222;2023-08-06T04:05:59;2.67;;;2.00;;
20080;SDS011;10200;49.232;9.222;2023-08-06T04:08:26;4.20;;;2.27;;
20080;SDS011;10200;49.232;9.222;2023-08-06T04:10:52;3.40;;;2.00;;
20080;SDS011;10200;49.232;9.222;2023-08-06T04:13:17;2.97;;;1.70;;
20080;SDS011;10200;49.232;9.222;2023-08-06T04:15:44;2.43;;;1.60;;
20080;SDS011;10200;49.232;9.222;2023-08-06T04:18:09;2.83;;;1.60;;
20080;SDS011;10200;49.232;9.222;2023-08-06T04:20:41;4.83;;;2.10;;
20080;SDS011;10200;49.232;9.222;2023-08-06T04:23:10;2.63;;;1.77;;
20080;SDS011;10200;49.232;9.222;2023-08-06T04:25:36;2.07;;;1.40;;
20080;SDS011;10200;49.232;9.222;2023-08-06T04:28:01;2.63;;;1.27;;
20080;SDS011;10200;49.232;9.222;2023-08-06T04:30:27;5.33;;;1.70;;
20080;SDS011;10200;49.232;9.222;2023-08-06T04:32:52;2.00;;;1.30;;
20080;SDS011;10200;49.232;9.222;2023-08-06T04:35:18;2.90;;;1.80;;
20080;SDS011;10200;49.232;9.222;2023-08-06T04:37:44;2.00;;;1.50;;
20080;SDS011;10200;49.232;9.222;2023-08-06T04:40:09;5.73;;;1.33;;
20080;SDS011;10200;49.232;9.222;2023-08-06T04:42:35;3.73;;;1.50;;
20080;SDS011;10200;49.232;9.222;2023-08-06T04:45:01;3.20;;;0.93;;
20080;SDS011;10200;49.232;9.222;2023-08-06T04:47:27;3.20;;;1.33;;
20080;SDS011;10200;49.232;9.222;2023-08-06T04:49:53;4.50;;;1.40;;
20080;SDS011;10200;49.232;9.222;2023-08-06T04:52:18;2.17;;;1.00;;
20080;SDS011;10200;49.232;9.222;2023-08-06T04:54:44;4.73;;;1.43;;
20080;SDS011;10200;49.232;9.222;2023-08-06T04:57:09;3.10;;;1.67;;
20080;SDS011;10200;49.232;9.222;2023-08-06T04:59:35;5.10;;;1.13;;
20080;SDS011;10200;49.232;9.222;2023-08-06T05:02:01;3.00;;;1.33;;
20080;SDS011;10200;49.232;9.222;2023-08-06T05:04:26;3.80;;;1.40;;
20080;SDS011;10200;49.232;9.222;2023-08-06T05:06:53;2.37;;;1.60;;
20080;SDS011;10200;49.232;9.222;2023-08-06T05:09:18;2.17;;;1.03;;
20080;SDS011;10200;49.232;9.222;2023-08-06T05:11:45;4.47;;;1.10;;
20080;SDS011;10200;49.232;9.222;2023-08-06T05:14:11;2.40;;;1.17;;
20080;SDS011;10200;49.232;9.222;2023-08-06T05:16:37;5.33;;;1.20;;
20080;SDS011;10200;49.232;9.222;2023-08-06T05:19:02;4.53;;;1.10;;
20080;SDS011;10200;49.232;9.222;2023-08-06T05:21:28;2.03;;;1.00;;
20080;SDS011;10200;49.232;9.222;2023-08-06T05:23:54;1.60;;;0.90;;
20080;SDS011;10200;49.232;9.222;2023-08-06T05:26:19;3.37;;;1.10;;
20080;SDS011;10200;49.232;9.222;2023-08-06T05:28:45;1.47;;;0.90;;
20080;SDS011;10200;49.232;9.222;2023-08-06T05:31:11;2.20;;;1.13;;
20080;SDS011;10200;49.232;9.222;2023-08-06T05:33:37;3.30;;;1.00;;
20080;SDS011;10200;49.232;9.222;2023-08-06T05:36:02;2.23;;;0.83;;
20080;SDS011;10200;49.232;9.222;2023-08-06T05:38:29;4.63;;;1.03;;
20080;SDS011;10200;49.232;9.222;2023-08-06T05:40:55;2.40;;;0.80;;
20080;SDS011;10200;49.232;9.222;2023-08-06T05:43:21;2.07;;;0.60;;
20080;SDS011;10200;49.232;9.222;2023-08-06T05:45:48;2.40;;;0.83;;
20080;SDS011;10200;49.232;9.222;2023-08-06T05:48:14;3.63;;;1.10;;
20080;SDS011;10200;49.232;9.222;2023-08-06T05:50:40;3.03;;;1.03;;
20080;SDS011;10200;49.232;9.222;2023-08-06T05:53:06;2.10;;;0.67;;
20080;SDS011;10200;49.232;9.222;2023-08-06T05:55:32;2.70;;;1.10;;
20080;SDS011;10200;49.232;9.222;2023-08-06T05:57:58;2.03;;;0.77;;
20080;SDS011;10200;49.232;9.222;2023-08-06T06:00:24;4.73;;;1.27;;
20080;SDS011;10200;49.232;9.222;2023-08-06T06:02:50;5.37;;;0.93;;
20080;SDS011;10200;49.232;9.222;2023-08-06T06:05:15;5.37;;;0.90;;
20080;SDS011;10200;49.232;9.222;2023-08-06T06:07:41;2.60;;;0.87;;
20080;SDS011;10200;49.232;9.222;2023-08-06T06:10:06;4.30;;;1.43;;
20080;SDS011;10200;49.232;9.222;2023-08-06T06:12:32;6.93;;;1.30;;
20080;SDS011;10200;49.232;9.222;2023-08-06T06:14:58;3.50;;;1.07;;
20080;SDS011;10200;49.232;9.222;2023-08-06T06:17:25;4.03;;;1.00;;
20080;SDS011;10200;49.232;9.222;2023-08-06T06:19:51;4.13;;;1.33;;
20080;SDS011;10200;49.232;9.222;2023-08-06T06:22:17;1.77;;;1.00;;
20080;SDS011;10200;49.232;9.222;2023-08-06T06:24:42;4.03;;;1.10;;
20080;SDS011;10200;49.232;9.222;2023-08-06T06:27:08;2.40;;;0.93;;
20080;SDS011;10200;49.232;9.222;2023-08-06T06:29:34;4.43;;;0.93;;
20080;SDS011;10200;49.232;9.222;2023-08-06T06:31:59;5.03;;;0.70;;
20080;SDS011;10200;49.232;9.222;2023-08-06T06:34:25;2.43;;;0.80;;
20080;SDS011;10200;49.232;9.222;2023-08-06T06:36:50;2.13;;;1.13;;
20080;SDS011;10200;49.232;9.222;2023-08-06T06:39:17;1.43;;;0.60;;
20080;SDS011;10200;49.232;9.222;2023-08-06T06:41:43;1.77;;;0.70;;
20080;SDS011;10200;49.232;9.222;2023-08-06T06:44:09;1.27;;;0.60;;
20080;SDS011;10200;49.232;9.222;2023-08-06T06:46:35;0.80;;;0.80;;
20080;SDS011;10200;49.232;9.222;2023-08-06T06:49:00;0.80;;;0.50;;
20080;SDS011;10200;49.232;9.222;2023-08-06T06:51:26;2.37;;;1.00;;
20080;SDS011;10200;49.232;9.222;2023-08-06T06:53:52;2.87;;;0.87;;
20080;SDS011;10200;49.232;9.222;2023-08-06T06:56:17;2.20;;;0.50;;
20080;SDS011;10200;49.232;9.222;2023-08-06T06:58:43;1.87;;;0.70;;
20080;SDS011;10200;49.232;9.222;2023-08-06T07:01:09;3.97;;;0.77;;
20080;SDS011;10200;49.232;9.222;2023-08-06T07:03:36;0.83;;;0.50;;
20080;SDS011;10200;49.232;9.222;2023-08-06T07:06:02;1.03;;;0.53;;
20080;SDS011;10200;49.232;9.222;2023-08-06T07:08:28;1.83;;;0.50;;
20080;SDS011;10200;49.232;9.222;2023-08-06T07:11:04;1.20;;;0.50;;
20080;SDS011;10200;49.232;9.222;2023-08-06T07:13:30;0.87;;;0.60;;
20080;SDS011;10200;49.232;9.222;2023-08-06T07:15:56;1.97;;;1.17;;
20080;SDS011;10200;49.232;9.222;2023-08-06T07:18:22;1.00;;;0.43;;
20080;SDS011;10200;49.232;9.222;2023-08-06T07:20:51;0.93;;;0.30;;
20080;SDS011;10200;49.232;9.222;2023-08-06T07:23:19;2.10;;;0.53;;
20080;SDS011;10200;49.232;9.222;2023-08-06T07:25:47;1.30;;;0.40;;
20080;SDS011;10200;49.232;9.222;2023-08-06T07:28:13;1.40;;;0.50;;
20080;SDS011;10200;49.232;9.222;2023-08-06T07:30:39;0.77;;;0.50;;
20080;SDS011;10200;49.232;9.222;2023-08-06T07:33:06;0.87;;;0.40;;
20080;SDS011;10200;49.232;9.222;2023-08-06T07:35:32;0.60;;;0.50;;
20080;SDS011;10200;49.232;9.222;2023-08-06T07:37:58;1.00;;;0.60;;
20080;SDS011;10200;49.232;9.222;2023-08-06T07:40:23;0.77;;;0.30;;
20080;SDS011;10200;49.232;9.222;2023-08-06T07:42:49;1.00;;;0.30;;
20080;SDS011;10200;49.232;9.222;2023-08-06T07:45:15;0.60;;;0.50;;
20080;SDS011;10200;49.232;9.222;2023-08-06T07:47:40;0.80;;;0.40;;
20080;SDS011;10200;49.232;9.222;2023-08-06T07:50:07;0.40;;;0.40;;
20080;SDS011;10200;49.232;9.222;2023-08-06T07:52:33;0.40;;;0.30;;
20080;SDS011;10200;49.232;9.222;2023-08-06T07:54:59;1.63;;;0.80;;
20080;SDS011;10200;49.232;9.222;2023-08-06T07:57:26;0.33;;;0.30;;
20080;SDS011;10200;49.232;9.222;2023-08-06T07:59:52;0.93;;;0.50;;
20080;SDS011;10200;49.232;9.222;2023-08-06T08:02:18;1.33;;;0.40;;
20080;SDS011;10200;49.232;9.222;2023-08-06T08:04:44;0.97;;;0.40;;
20080;SDS011;10200;49.232;9.222;2023-08-06T08:07:12;2.10;;;0.33;;
20080;SDS011;10200;49.232;9.222;2023-08-06T08:09:38;0.73;;;0.50;;
20080;SDS011;10200;49.232;9.222;2023-08-06T08:12:04;0.67;;;0.67;;
20080;SDS011;10200;49.232;9.222;2023-08-06T08:14:30;1.53;;;0.37;;
20080;SDS011;10200;49.232;9.222;2023-08-06T08:17:00;1.03;;;0.40;;
20080;SDS011;10200;49.232;9.222;2023-08-06T08:19:30;2.20;;;0.50;;
20080;SDS011;10200;49.232;9.222;2023-08-06T08:21:56;1.07;;;0.43;;
20080;SDS011;10200;49.232;9.222;2023-08-06T08:24:22;0.37;;;0.30;;
20080;SDS011;10200;49.232;9.222;2023-08-06T08:26:51;0.30;;;0.30;;
20080;SDS011;10200;49.232;9.222;2023-08-06T08:29:17;3.47;;;0.30;;
20080;SDS011;10200;49.232;9.222;2023-08-06T08:31:42;0.77;;;0.40;;
20080;SDS011;10200;49.232;9.222;2023-08-06T08:34:09;0.57;;;0.50;;
20080;SDS011;10200;49.232;9.222;2023-08-06T08:36:35;0.97;;;0.47;;
20080;SDS011;10200;49.232;9.222;2023-08-06T08:39:01;0.53;;;0.40;;
20080;SDS011;10200;49.232;9.222;2023-08-06T08:41:30;0.67;;;0.40;;
20080;SDS011;10200;49.232;9.222;2023-08-06T08:43:56;0.30;;;0.30;;
20080;SDS011;10200;49.232;9.222;2023-08-06T08:46:26;1.10;;;0.30;;
20080;SDS011;10200;49.232;9.222;2023-08-06T08:48:54;1.93;;;0.40;;
20080;SDS011;10200;49.232;9.222;2023-08-06T08:51:20;1.03;;;0.30;;
20080;SDS011;10200;49.232;9.222;2023-08-06T08:53:47;0.32;;;0.30;;
20080;SDS011;10200;49.232;9.222;2023-08-06T08:56:14;2.57;;;0.30;;
20080;SDS011;10200;49.232;9.222;2023-08-06T08:58:41;0.77;;;0.37;;
20080;SDS011;10200;49.232;9.222;2023-08-06T09:01:07;0.30;;;0.30;;
20080;SDS011;10200;49.232;9.222;2023-08-06T09:03:33;0.40;;;0.30;;
20080;SDS011;10200;49.232;9.222;2023-08-06T09:06:01;0.93;;;0.40;;
20080;SDS011;10200;49.232;9.222;2023-08-06T09:08:34;1.17;;;0.43;;
20080;SDS011;10200;49.232;9.222;2023-08-06T09:11:02;0.53;;;0.30;;
20080;SDS011;10200;49.232;9.222;2023-08-06T09:13:29;1.23;;;0.30;;
20080;SDS011;10200;49.232;9.222;2023-08-06T09:15:55;0.63;;;0.40;;
20080;SDS011;10200;49.232;9.222;2023-08-06T09:18:26;1.10;;;0.23;;
20080;SDS011;10200;49.232;9.222;2023-08-06T09:20:54;0.13;;;0.13;;
20080;SDS011;10200;49.232;9.222;2023-08-06T09:23:20;1.50;;;0.30;;
20080;SDS011;10200;49.232;9.222;2023-08-06T09:25:45;1.42;;;0.30;;
20080;SDS011;10200;49.232;9.222;2023-08-06T09:28:12;0.20;;;0.20;;
20080;SDS011;10200;49.232;9.222;2023-08-06T09:30:38;0.50;;;0.50;;
20080;SDS011;10200;49.232;9.222;2023-08-06T09:33:07;0.27;;;0.20;;
20080;SDS011;10200;49.232;9.222;2023-08-06T09:35:36;2.75;;;0.35;;
20080;SDS011;10200;49.232;9.222;2023-08-06T09:38:09;0.25;;;0.20;;
20080;SDS011;10200;49.232;9.222;2023-08-06T09:40:35;0.20;;;0.20;;
20080;SDS011;10200;49.232;9.222;2023-08-06T09:43:01;0.20;;;0.20;;
20080;SDS011;10200;49.232;9.222;2023-08-06T09:45:31;0.20;;;0.20;;
20080;SDS011;10200;49.232;9.222;2023-08-06T09:48:04;0.20;;;0.20;;
20080;SDS011;10200;49.232;9.222;2023-08-06T09:50:37;0.80;;;0.50;;
20080;SDS011;10200;49.232;9.222;2023-08-06T09:53:04;1.88;;;0.30;;
20080;SDS011;10200;49.232;9.222;2023-08-06T09:55:31;0.20;;;0.20;;
20080;SDS011;10200;49.232;9.222;2023-08-06T09:57:58;1.60;;;0.30;;
20080;SDS011;10200;49.232;9.222;2023-08-06T10:00:24;0.53;;;0.27;;
20080;SDS011;10200;49.232;9.222;2023-08-06T10:02:51;0.60;;;0.47;;
20080;SDS011;10200;49.232;9.222;2023-08-06T10:05:21;0.60;;;0.60;;
20080;SDS011;10200;49.232;9.222;2023-08-06T10:07:47;2.45;;;0.60;;
20080;SDS011;10200;49.232;9.222;2023-08-06T10:10:15;0.87;;;0.60;;
20080;SDS011;10200;49.232;9.222;2023-08-06T10:12:51;2.23;;;0.40;;
20080;SDS011;10200;49.232;9.222;2023-08-06T10:15:22;0.43;;;0.30;;
20080;SDS011;10200;49.232;9.222;2023-08-06T10:17:51;1.75;;;0.43;;
20080;SDS011;10200;49.232;9.222;2023-08-06T10:20:21;0.28;;;0.20;;
20080;SDS011;10200;49.232;9.222;2023-08-06T10:22:59;0.20;;;0.20;;
20080;SDS011;10200;49.232;9.222;2023-08-06T10:25:33;0.73;;;0.30;;
20080;SDS011;10200;49.232;9.222;2023-08-06T10:27:59;0.30;;;0.30;;
20080;SDS011;10200;49.232;9.222;2023-08-06T10:30:27;0.47;;;0.47;;
20080;SDS011;10200;49.232;9.222;2023-08-06T10:33:00;0.38;;;0.20;;
20080;SDS011;10200;49.232;9.222;2023-08-06T10:35:30;0.20;;;0.20;;
20080;SDS011;10200;49.232;9.222;2023-08-06T10:37:59;2.40;;;0.40;;
20080;SDS011;10200;49.232;9.222;2023-08-06T10:40:35;0.10;;;0.10;;
20080;SDS011;10200;49.232;9.222;2023-08-06T10:43:02;0.32;;;0.20;;
20080;SDS011;10200;49.232;9.222;2023-08-06T10:45:29;1.20;;;0.20;;
20080;SDS011;10200;49.232;9.222;2023-08-06T10:47:55;0.80;;;0.30;;
20080;SDS011;10200;49.232;9.222;2023-08-06T10:50:22;0.20;;;0.20;;
20080;SDS011;10200;49.232;9.222;2023-08-06T10:52:48;0.30;;;0.30;;
20080;SDS011;10200;49.232;9.222;2023-08-06T10:55:23;0.47;;;0.40;;
20080;SDS011;10200;49.232;9.222;2023-08-06T10:57:50;1.08;;;0.28;;
20080;SDS011;10200;49.232;9.222;2023-08-06T11:00:15;2.77;;;0.50;;
20080;SDS011;10200;49.232;9.222;2023-08-06T11:02:41;0.40;;;0.40;;
20080;SDS011;10200;49.232;9.222;2023-08-06T11:05:09;1.00;;;0.43;;
20080;SDS011;10200;49.232;9.222;2023-08-06T11:07:35;0.57;;;0.30;;
20080;SDS011;10200;49.232;9.222;2023-08-06T11:10:02;0.43;;;0.40;;
20080;SDS011;10200;49.232;9.222;2023-08-06T11:12:32;0.63;;;0.40;;
20080;SDS011;10200;49.232;9.222;2023-08-06T11:14:58;0.50;;;0.37;;
20080;SDS011;10200;49.232;9.222;2023-08-06T11:17:24;0.30;;;0.30;;
20080;SDS011;10200;49.232;9.222;2023-08-06T11:19:50;2.23;;;0.87;;
20080;SDS011;10200;49.232;9.222;2023-08-06T11:22:17;0.30;;;0.30;;
20080;SDS011;10200;49.232;9.222;2023-08-06T11:24:43;0.40;;;0.40;;
20080;SDS011;10200;49.232;9.222;2023-08-06T11:27:12;3.13;;;0.67;;
20080;SDS011;10200;49.232;9.222;2023-08-06T11:29:39;0.77;;;0.50;;
20080;SDS011;10200;49.232;9.222;2023-08-06T11:32:08;0.50;;;0.50;;
20080;SDS011;10200;49.232;9.222;2023-08-06T11:34:35;0.73;;;0.60;;
20080;SDS011;10200;49.232;9.222;2023-08-06T11:37:02;0.80;;;0.80;;
20080;SDS011;10200;49.232;9.222;2023-08-06T11:39:30;0.45;;;0.45;;
20080;SDS011;10200;49.232;9.222;2023-08-06T11:41:59;2.08;;;0.45;;
20080;SDS011;10200;49.232;9.222;2023-08-06T11:44:29;1.00;;;0.50;;
20080;SDS011;10200;49.232;9.222;2023-08-06T11:46:59;0.40;;;0.40;;
20080;SDS011;10200;49.232;9.222;2023-08-06T11:54:59;0.57;;;0.53;;
20080;SDS011;10200;49.232;9.222;2023-08-06T11:57:31;0.80;;;0.80;;
20080;SDS011;10200;49.232;9.222;2023-08-06T12:00:03;1.30;;;0.73;;
20080;SDS011;10200;49.232;9.222;2023-08-06T12:02:34;0.53;;;0.53;;
20080;SDS011;10200;49.232;9.222;2023-08-06T12:07:36;1.00;;;0.80;;
20080;SDS011;10200;49.232;9.222;2023-08-06T12:10:03;0.97;;;0.60;;
20080;SDS011;10200;49.232;9.222;2023-08-06T12:12:29;1.50;;;0.93;;
20080;SDS011;10200;49.232;9.222;2023-08-06T12:14:55;0.70;;;0.70;;
20080;SDS011;10200;49.232;9.222;2023-08-06T12:17:21;1.33;;;1.07;;
20080;SDS011;10200;49.232;9.222;2023-08-06T12:19:50;2.23;;;1.07;;
20080;SDS011;10200;49.232;9.222;2023-08-06T12:22:16;2.30;;;1.10;;
20080;SDS011;10200;49.232;9.222;2023-08-06T12:24:42;1.70;;;1.03;;
20080;SDS011;10200;49.232;9.222;2023-08-06T12:27:09;1.27;;;1.00;;
20080;SDS011;10200;49.232;9.222;2023-08-06T12:29:35;1.77;;;1.10;;
20080;SDS011;10200;49.232;9.222;2023-08-06T12:32:02;1.23;;;1.00;;
20080;SDS011;10200;49.232;9.222;2023-08-06T12:34:28;1.93;;;1.13;;
20080;SDS011;10200;49.232;9.222;2023-08-06T12:36:54;1.27;;;1.17;;
20080;SDS011;10200;49.232;9.222;2023-08-06T12:39:19;2.07;;;1.20;;
20080;SDS011;10200;49.232;9.222;2023-08-06T12:41:45;1.50;;;1.20;;
20080;SDS011;10200;49.232;9.222;2023-08-06T12:44:11;1.93;;;1.40;;
20080;SDS011;10200;49.232;9.222;2023-08-06T12:46:37;3.03;;;1.53;;
20080;SDS011;10200;49.232;9.222;2023-08-06T12:49:03;1.40;;;0.93;;
20080;SDS011;10200;49.232;9.222;2023-08-06T12:51:28;3.13;;;1.23;;
20080;SDS011;10200;49.232;9.222;2023-08-06T12:53:54;2.70;;;1.20;;
20080;SDS011;10200;49.232;9.222;2023-08-06T12:56:20;2.90;;;1.50;;
20080;SDS011;10200;49.232;9.222;2023-08-06T12:58:45;2.00;;;1.23;;
20080;SDS011;10200;49.232;9.222;2023-08-06T13:01:11;2.37;;;1.50;;
20080;SDS011;10200;49.232;9.222;2023-08-06T13:03:36;3.07;;;1.57;;
20080;SDS011;10200;49.232;9.222;2023-08-06T13:06:02;2.53;;;1.50;;
20080;SDS011;10200;49.232;9.222;2023-08-06T13:08:28;6.23;;;2.07;;
20080;SDS011;10200;49.232;9.222;2023-08-06T13:10:53;1.63;;;1.40;;
20080;SDS011;10200;49.232;9.222;2023-08-06T13:13:19;1.75;;;1.10;;
20080;SDS011;10200;49.232;9.222;2023-08-06T13:15:45;3.13;;;2.05;;
20080;SDS011;10200;49.232;9.222;2023-08-06T13:18:10;3.57;;;1.57;;
20080;SDS011;10200;49.232;9.222;2023-08-06T13:20:37;2.15;;;1.42;;
20080;SDS011;10200;49.232;9.222;2023-08-06T13:23:04;2.10;;;1.60;;
20080;SDS011;10200;49.232;9.222;2023-08-06T13:25:30;4.40;;;1.65;;
20080;SDS011;10200;49.232;9.222;2023-08-06T13:27:55;3.67;;;1.67;;
20080;SDS011;10200;49.232;9.222;2023-08-06T13:30:21;1.48;;;1.38;;
20080;SDS011;10200;49.232;9.222;2023-08-06T13:32:48;2.60;;;1.57;;
20080;SDS011;10200;49.232;9.222;2023-08-06T13:35:13;1.40;;;1.27;;
20080;SDS011;10200;49.232;9.222;2023-08-06T13:37:39;2.10;;;1.42;;
20080;SDS011;10200;49.232;9.222;2023-08-06T13:40:04;3.70;;;1.60;;
20080;SDS011;10200;49.232;9.222;2023-08-06T13:42:31;5.95;;;2.10;;
20080;SDS011;10200;49.232;9.222;2023-08-06T13:44:57;2.27;;;1.63;;
20080;SDS011;10200;49.232;9.222;2023-08-06T13:47:27;2.80;;;1.65;;
20080;SDS011;10200;49.232;9.222;2023-08-06T13:49:53;1.80;;;1.58;;
20080;SDS011;10200;49.232;9.222;2023-08-06T13:52:19;3.83;;;1.63;;
20080;SDS011;10200;49.232;9.222;2023-08-06T13:54:45;3.53;;;1.30;;
20080;SDS011;10200;49.232;9.222;2023-08-06T13:57:11;2.08;;;1.40;;
20080;SDS011;10200;49.232;9.222;2023-08-06T13:59:37;1.98;;;1.65;;
20080;SDS011;10200;49.232;9.222;2023-08-06T14:02:03;1.80;;;1.30;;
20080;SDS011;10200;49.232;9.222;2023-08-06T14:04:29;1.75;;;0.90;;
20080;SDS011;10200;49.232;9.222;2023-08-06T14:06:54;1.73;;;1.33;;
20080;SDS011;10200;49.232;9.222;2023-08-06T14:09:20;0.90;;;0.90;;
20080;SDS011;10200;49.232;9.222;2023-08-06T14:11:45;1.40;;;1.00;;
20080;SDS011;10200;49.232;9.222;2023-08-06T14:14:11;2.35;;;1.20;;
20080;SDS011;10200;49.232;9.222;2023-08-06T14:16:37;1.33;;;0.73;;
20080;SDS011;10200;49.232;9.222;2023-08-06T14:19:02;1.38;;;0.90;;
20080;SDS011;10200;49.232;9.222;2023-08-06T14:21:28;2.65;;;0.80;;
20080;SDS011;10200;49.232;9.222;2023-08-06T14:23:54;1.40;;;0.82;;
20080;SDS011;10200;49.232;9.222;2023-08-06T14:26:19;0.73;;;0.73;;
20080;SDS011;10200;49.232;9.222;2023-08-06T14:28:45;0.80;;;0.65;;
20080;SDS011;10200;49.232;9.222;2023-08-06T14:31:11;2.72;;;0.98;;
20080;SDS011;10200;49.232;9.222;2023-08-06T14:33:36;2.00;;;0.60;;
20080;SDS011;10200;49.232;9.222;2023-08-06T14:36:02;1.33;;;0.75;;
20080;SDS011;10200;49.232;9.222;2023-08-06T14:38:28;0.82;;;0.70;;
20080;SDS011;10200;49.232;9.222;2023-08-06T14:40:53;1.05;;;0.63;;
20080;SDS011;10200;49.232;9.222;2023-08-06T14:43:19;1.00;;;0.90;;
20080;SDS011;10200;49.232;9.222;2023-08-06T14:45:45;0.55;;;0.50;;
20080;SDS011;10200;49.232;9.222;2023-08-06T14:48:10;0.68;;;0.55;;
20080;SDS011;10200;49.232;9.222;2023-08-06T14:50:36;1.95;;;0.82;;
20080;SDS011;10200;49.232;9.222;2023-08-06T14:53:03;1.50;;;0.77;;
20080;SDS011;10200;49.232;9.222;2023-08-06T14:55:29;2.10;;;0.57;;